Saint Paul, MN (55105)

8:04 PM CST on November 25, 2014 (GMT -0600)
Mac-Grove2 | Change Station
CLOSE
Current Station
Personal Weather Station
Location: SAINT PAUL, MN
Elevation: 915 ft
Nearby Weather Stations

Elev 915 ft 44.93 °N, 93.19 °W | Updated 4 minutes ago

Overcast
Overcast
23.9 °F
Feels Like 24 °F
N
2.0
Wind Variable Wind from NW
Gusts 4.0 mph

Today
High -- | Low -- °F
--% Chance of Precip.
Yesterday
High -- | Low -- °F
Precip. -- in
7:23 AM 4:35 PM
Waxing Crescent, 15% visible
Pressure 30.06 in
Visibility 10.0 miles
Clouds Overcast 6500 ft
Windchill 24 °F
Dew Point 17 °F
Humidity 75%
Rainfall 0.00 in
Snow Depth Not available.
UV 0 out of 12
Pollen .10 out of 12
Air Quality Not available.
Flu Activity Not available.
METAR KMSP 260153Z 13008KT 10SM OVC065 M04/M09 A3001 RMK AO2 SLP179 T10441094

More Conditions Fewer Conditions

Pressure 30.06 in
Visibility 10.0 miles
Clouds Overcast 6500 ft
Windchill 24 °F
Dew Point 17 °F
Humidity 75%
Rainfall 0.00 in
Snow Depth Not available.
UV 0 out of 12
Pollen .10 out of 12
Air Quality Not available.
Flu Activity Not available.
METAR KMSP 260153Z 13008KT 10SM OVC065 M04/M09 A3001 RMK AO2 SLP179 T10441094

More Conditions Fewer Conditions

Nowcast | as of 5:59 PM CST on November 25, 2014

Dry weather is expected across the Twin City Metro through midnight. But a wide area of snow is moving into the western half of Minnesota from the Dakotas...between now and midnight. The leading edge is developing to the east at 20 mph...will move across Browns Valley...Wheaton...and Ortonville to Elbow Lake... Alexandria...Morris...Glenwood...Appleton...Benson...and Willmar... Madison...Montevideo...Canby...calrkfield...and Granite Falls... Olivia...Marshall to Redwood Falls...and New Ulm...Sioux Falls to Worthington and Fairmont...between now and midnight. Up to an inch of new snow could accumulate over the western quarter of Minnesota this evening...to the west of Highway 71. The winds are expected to stay light from the southeast at 5 to 15 mph...and this will keep the snow from blowing or drifitng tonight.

×

10-Day Weather Forecast

Almanac

Astronomy

Nov. 25, 2014 Rise Set
Actual Time
Civil Twilight
Nautical Twilight
Astronomical Twilight
Moon
Length of Visible Light
Length of Day
Tomorrow will be .
, % of the Moon is Illuminated

Today's Extremes

State Highs State Lows

Community

WunderPhotos

Upload Photos

1,773,642 photos uploaded!

WunderBlogs® & News

Nearby

Air Quality

  Air Quality AQ Index Pollutant
Not available.

Snow Depth

Station Depth Elevation

Earthquake Activity

City Distance Mag. Time & Date
Minimum magnitude displayed is 2.5.

Coastal Water Temperatures

Place Temperature

Nearby Weather Stations